sensor_id;sensor_type;location;lat;lon;timestamp;pressure;altitude;pressure_sealevel;temperature;humidity
79690;BME280;69156;55.932;-3.238;2023-06-22T00:02:05;101047.75;;;16.98;56.82
79690;BME280;69156;55.932;-3.238;2023-06-22T00:04:31;101052.57;;;17.09;57.14
79690;BME280;69156;55.932;-3.238;2023-06-22T00:06:56;101049.13;;;16.96;57.41
79690;BME280;69156;55.932;-3.238;2023-06-22T00:09:22;101052.42;;;16.97;57.60
79690;BME280;69156;55.932;-3.238;2023-06-22T00:11:47;101053.36;;;16.91;57.56
79690;BME280;69156;55.932;-3.238;2023-06-22T00:14:13;101057.76;;;16.84;57.84
79690;BME280;69156;55.932;-3.238;2023-06-22T00:16:38;101063.08;;;16.96;57.43
79690;BME280;69156;55.932;-3.238;2023-06-22T00:19:04;101067.66;;;16.85;57.74
79690;BME280;69156;55.932;-3.238;2023-06-22T00:21:29;101068.23;;;16.84;57.50
79690;BME280;69156;55.932;-3.238;2023-06-22T00:23:55;101074.59;;;16.78;57.83
79690;BME280;69156;55.932;-3.238;2023-06-22T00:26:20;101074.22;;;16.87;57.56
79690;BME280;69156;55.932;-3.238;2023-06-22T00:28:46;101080.61;;;16.91;57.48
79690;BME280;69156;55.932;-3.238;2023-06-22T00:31:11;101078.31;;;16.88;57.63
79690;BME280;69156;55.932;-3.238;2023-06-22T00:33:37;101081.79;;;16.72;57.92
79690;BME280;69156;55.932;-3.238;2023-06-22T00:36:02;101085.43;;;16.77;57.93
79690;BME280;69156;55.932;-3.238;2023-06-22T00:38:27;101087.88;;;16.72;57.81
79690;BME280;69156;55.932;-3.238;2023-06-22T00:40:53;101090.15;;;16.63;57.92
79690;BME280;69156;55.932;-3.238;2023-06-22T00:43:18;101090.57;;;16.58;57.94
79690;BME280;69156;55.932;-3.238;2023-06-22T00:45:43;101095.27;;;16.47;58.17
79690;BME280;69156;55.932;-3.238;2023-06-22T00:48:09;101098.29;;;16.50;58.09
79690;BME280;69156;55.932;-3.238;2023-06-22T00:50:35;101092.92;;;16.43;58.27
79690;BME280;69156;55.932;-3.238;2023-06-22T00:53:03;101095.84;;;16.40;58.34
79690;BME280;69156;55.932;-3.238;2023-06-22T00:55:26;101097.37;;;16.36;58.49
79690;BME280;69156;55.932;-3.238;2023-06-22T00:57:52;101098.51;;;16.38;58.55
79690;BME280;69156;55.932;-3.238;2023-06-22T01:00:17;101102.04;;;16.32;58.77
79690;BME280;69156;55.932;-3.238;2023-06-22T01:02:42;101104.63;;;16.27;58.95
79690;BME280;69156;55.932;-3.238;2023-06-22T01:05:08;101107.25;;;16.21;59.14
79690;BME280;69156;55.932;-3.238;2023-06-22T01:07:37;101109.09;;;16.11;59.33
79690;BME280;69156;55.932;-3.238;2023-06-22T01:10:06;101109.85;;;16.03;59.54
79690;BME280;69156;55.932;-3.238;2023-06-22T01:12:25;101111.09;;;16.12;59.59
79690;BME280;69156;55.932;-3.238;2023-06-22T01:14:53;101110.68;;;16.08;59.82
79690;BME280;69156;55.932;-3.238;2023-06-22T01:17:15;101114.15;;;16.02;60.03
79690;BME280;69156;55.932;-3.238;2023-06-22T01:19:49;101113.84;;;16.02;60.05
79690;BME280;69156;55.932;-3.238;2023-06-22T01:22:07;101115.39;;;15.99;60.50
79690;BME280;69156;55.932;-3.238;2023-06-22T01:24:38;101121.01;;;15.97;60.78
79690;BME280;69156;55.932;-3.238;2023-06-22T01:27:09;101120.68;;;15.90;61.22
79690;BME280;69156;55.932;-3.238;2023-06-22T01:29:24;101121.26;;;16.02;61.38
79690;BME280;69156;55.932;-3.238;2023-06-22T01:31:49;101128.72;;;15.80;61.78
79690;BME280;69156;55.932;-3.238;2023-06-22T01:34:14;101131.93;;;15.78;62.08
79690;BME280;69156;55.932;-3.238;2023-06-22T01:36:39;101134.50;;;15.72;62.16
79690;BME280;69156;55.932;-3.238;2023-06-22T01:39:05;101134.14;;;15.78;62.35
79690;BME280;69156;55.932;-3.238;2023-06-22T01:41:30;101136.70;;;15.58;62.60
79690;BME280;69156;55.932;-3.238;2023-06-22T01:43:56;101136.53;;;15.64;62.54
79690;BME280;69156;55.932;-3.238;2023-06-22T01:46:21;101141.59;;;15.72;62.59
79690;BME280;69156;55.932;-3.238;2023-06-22T01:48:47;101143.20;;;15.66;62.65
79690;BME280;69156;55.932;-3.238;2023-06-22T01:51:11;101139.85;;;15.71;62.69
79690;BME280;69156;55.932;-3.238;2023-06-22T01:53:37;101143.66;;;15.64;63.05
79690;BME280;69156;55.932;-3.238;2023-06-22T01:56:03;101149.95;;;15.58;63.32
79690;BME280;69156;55.932;-3.238;2023-06-22T01:58:30;101154.40;;;15.49;63.53
79690;BME280;69156;55.932;-3.238;2023-06-22T02:00:58;101155.38;;;15.35;63.51
79690;BME280;69156;55.932;-3.238;2023-06-22T02:03:29;101158.06;;;15.59;63.23
79690;BME280;69156;55.932;-3.238;2023-06-22T02:05:49;101160.23;;;15.57;63.18
79690;BME280;69156;55.932;-3.238;2023-06-22T02:08:13;101160.73;;;15.45;63.49
79690;BME280;69156;55.932;-3.238;2023-06-22T02:10:38;101159.86;;;15.34;63.50
79690;BME280;69156;55.932;-3.238;2023-06-22T02:13:05;101162.43;;;15.29;63.64
79690;BME280;69156;55.932;-3.238;2023-06-22T02:15:28;101162.31;;;15.27;63.66
79690;BME280;69156;55.932;-3.238;2023-06-22T02:17:53;101161.31;;;15.29;63.60
79690;BME280;69156;55.932;-3.238;2023-06-22T02:20:18;101168.70;;;15.19;63.54
79690;BME280;69156;55.932;-3.238;2023-06-22T02:22:44;101168.05;;;15.15;63.46
79690;BME280;69156;55.932;-3.238;2023-06-22T02:25:10;101169.49;;;15.06;63.79
79690;BME280;69156;55.932;-3.238;2023-06-22T02:27:36;101170.03;;;15.23;63.57
79690;BME280;69156;55.932;-3.238;2023-06-22T02:30:01;101170.94;;;15.24;63.13
79690;BME280;69156;55.932;-3.238;2023-06-22T02:32:26;101170.12;;;15.16;63.14
79690;BME280;69156;55.932;-3.238;2023-06-22T02:34:52;101172.78;;;15.11;63.17
79690;BME280;69156;55.932;-3.238;2023-06-22T02:37:17;101175.19;;;15.02;63.42
79690;BME280;69156;55.932;-3.238;2023-06-22T02:39:43;101174.54;;;15.10;63.15
79690;BME280;69156;55.932;-3.238;2023-06-22T02:42:08;101172.40;;;15.01;63.12
79690;BME280;69156;55.932;-3.238;2023-06-22T02:44:33;101173.73;;;15.01;63.19
79690;BME280;69156;55.932;-3.238;2023-06-22T02:46:58;101172.58;;;15.05;63.40
79690;BME280;69156;55.932;-3.238;2023-06-22T02:49:24;101177.90;;;14.95;63.44
79690;BME280;69156;55.932;-3.238;2023-06-22T02:51:49;101180.87;;;14.95;63.34
79690;BME280;69156;55.932;-3.238;2023-06-22T02:54:15;101186.24;;;14.91;63.49
79690;BME280;69156;55.932;-3.238;2023-06-22T02:56:40;101185.55;;;14.98;63.30
79690;BME280;69156;55.932;-3.238;2023-06-22T02:59:05;101188.02;;;14.98;63.09
79690;BME280;69156;55.932;-3.238;2023-06-22T03:01:30;101196.86;;;14.94;63.24
79690;BME280;69156;55.932;-3.238;2023-06-22T03:03:56;101195.49;;;15.01;62.96
79690;BME280;69156;55.932;-3.238;2023-06-22T03:06:21;101197.66;;;14.92;63.19
79690;BME280;69156;55.932;-3.238;2023-06-22T03:08:47;101195.86;;;14.70;63.08
79690;BME280;69156;55.932;-3.238;2023-06-22T03:11:12;101196.15;;;14.74;63.00
79690;BME280;69156;55.932;-3.238;2023-06-22T03:13:37;101198.09;;;14.82;63.16
79690;BME280;69156;55.932;-3.238;2023-06-22T03:16:03;101198.94;;;14.74;63.40
79690;BME280;69156;55.932;-3.238;2023-06-22T03:18:28;101201.55;;;14.79;63.23
79690;BME280;69156;55.932;-3.238;2023-06-22T03:20:53;101208.07;;;14.76;63.15
79690;BME280;69156;55.932;-3.238;2023-06-22T03:23:19;101208.26;;;14.70;63.26
79690;BME280;69156;55.932;-3.238;2023-06-22T03:25:44;101206.17;;;14.53;63.74
79690;BME280;69156;55.932;-3.238;2023-06-22T03:28:09;101205.96;;;14.52;63.77
79690;BME280;69156;55.932;-3.238;2023-06-22T03:30:35;101209.88;;;14.49;63.58
79690;BME280;69156;55.932;-3.238;2023-06-22T03:33:00;101212.37;;;14.47;63.53
79690;BME280;69156;55.932;-3.238;2023-06-22T03:35:25;101213.08;;;14.60;63.56
79690;BME280;69156;55.932;-3.238;2023-06-22T03:37:51;101214.32;;;14.63;63.25
79690;BME280;69156;55.932;-3.238;2023-06-22T03:40:17;101213.42;;;14.63;63.22
79690;BME280;69156;55.932;-3.238;2023-06-22T03:42:42;101211.13;;;14.62;63.27
79690;BME280;69156;55.932;-3.238;2023-06-22T03:45:09;101209.38;;;14.46;63.57
79690;BME280;69156;55.932;-3.238;2023-06-22T03:47:33;101216.27;;;14.48;63.72
79690;BME280;69156;55.932;-3.238;2023-06-22T03:50:00;101219.65;;;14.45;63.36
79690;BME280;69156;55.932;-3.238;2023-06-22T03:52:25;101219.63;;;14.44;63.65
79690;BME280;69156;55.932;-3.238;2023-06-22T03:54:51;101219.47;;;14.49;63.50
79690;BME280;69156;55.932;-3.238;2023-06-22T03:57:16;101221.30;;;14.38;63.72
79690;BME280;69156;55.932;-3.238;2023-06-22T03:59:41;101223.88;;;14.48;63.56
79690;BME280;69156;55.932;-3.238;2023-06-22T04:02:07;101224.39;;;14.42;63.50
79690;BME280;69156;55.932;-3.238;2023-06-22T04:04:32;101229.46;;;14.29;63.45
79690;BME280;69156;55.932;-3.238;2023-06-22T04:06:57;101230.85;;;14.29;63.43
79690;BME280;69156;55.932;-3.238;2023-06-22T04:09:23;101235.12;;;14.38;63.40
79690;BME280;69156;55.932;-3.238;2023-06-22T04:11:48;101235.94;;;14.27;63.48
79690;BME280;69156;55.932;-3.238;2023-06-22T04:14:14;101234.85;;;14.31;63.35
79690;BME280;69156;55.932;-3.238;2023-06-22T04:16:40;101237.81;;;14.33;63.60
79690;BME280;69156;55.932;-3.238;2023-06-22T04:19:05;101237.24;;;14.37;63.47
79690;BME280;69156;55.932;-3.238;2023-06-22T04:21:31;101238.88;;;14.41;63.37
79690;BME280;69156;55.932;-3.238;2023-06-22T04:23:56;101243.41;;;14.47;63.26
79690;BME280;69156;55.932;-3.238;2023-06-22T04:26:22;101243.17;;;14.40;63.26
79690;BME280;69156;55.932;-3.238;2023-06-22T04:28:47;101242.17;;;14.40;63.31
79690;BME280;69156;55.932;-3.238;2023-06-22T04:31:13;101244.20;;;14.46;63.21
79690;BME280;69156;55.932;-3.238;2023-06-22T04:33:38;101247.33;;;14.52;63.05
79690;BME280;69156;55.932;-3.238;2023-06-22T04:36:04;101247.55;;;14.51;63.22
79690;BME280;69156;55.932;-3.238;2023-06-22T04:38:29;101242.02;;;14.40;63.20
79690;BME280;69156;55.932;-3.238;2023-06-22T04:40:54;101243.75;;;14.46;63.39
79690;BME280;69156;55.932;-3.238;2023-06-22T04:43:20;101242.55;;;14.51;62.98
79690;BME280;69156;55.932;-3.238;2023-06-22T04:45:45;101245.78;;;14.52;62.80
79690;BME280;69156;55.932;-3.238;2023-06-22T04:48:10;101248.59;;;14.63;62.57
79690;BME280;69156;55.932;-3.238;2023-06-22T04:50:36;101251.65;;;14.64;62.49
79690;BME280;69156;55.932;-3.238;2023-06-22T04:53:01;101251.55;;;14.79;62.35
79690;BME280;69156;55.932;-3.238;2023-06-22T04:55:26;101253.90;;;14.80;62.20
79690;BME280;69156;55.932;-3.238;2023-06-22T04:57:52;101254.66;;;14.84;62.06
79690;BME280;69156;55.932;-3.238;2023-06-22T05:00:18;101256.69;;;14.91;61.99
79690;BME280;69156;55.932;-3.238;2023-06-22T05:02:42;101258.67;;;14.82;62.05
79690;BME280;69156;55.932;-3.238;2023-06-22T05:05:08;101257.75;;;14.91;61.85
79690;BME280;69156;55.932;-3.238;2023-06-22T05:07:33;101256.67;;;15.01;61.67
79690;BME280;69156;55.932;-3.238;2023-06-22T05:09:58;101257.72;;;14.95;61.61
79690;BME280;69156;55.932;-3.238;2023-06-22T05:12:24;101260.49;;;15.00;61.41
79690;BME280;69156;55.932;-3.238;2023-06-22T05:14:49;101265.91;;;15.12;61.14
79690;BME280;69156;55.932;-3.238;2023-06-22T05:17:14;101266.78;;;15.12;61.06
79690;BME280;69156;55.932;-3.238;2023-06-22T05:19:41;101265.77;;;15.33;60.51
79690;BME280;69156;55.932;-3.238;2023-06-22T05:22:05;101270.69;;;15.28;60.49
79690;BME280;69156;55.932;-3.238;2023-06-22T05:24:31;101268.47;;;15.30;60.47
79690;BME280;69156;55.932;-3.238;2023-06-22T05:26:56;101270.32;;;15.34;60.29
79690;BME280;69156;55.932;-3.238;2023-06-22T05:29:21;101271.69;;;15.31;60.60
79690;BME280;69156;55.932;-3.238;2023-06-22T05:31:47;101273.48;;;15.55;60.43
79690;BME280;69156;55.932;-3.238;2023-06-22T05:34:12;101278.23;;;15.51;60.39
79690;BME280;69156;55.932;-3.238;2023-06-22T05:36:37;101279.34;;;15.66;60.14
79690;BME280;69156;55.932;-3.238;2023-06-22T05:39:11;101277.65;;;15.73;60.17
79690;BME280;69156;55.932;-3.238;2023-06-22T05:41:28;101280.20;;;15.85;60.11
79690;BME280;69156;55.932;-3.238;2023-06-22T05:43:53;101279.24;;;15.81;60.20
79690;BME280;69156;55.932;-3.238;2023-06-22T05:46:19;101278.25;;;16.07;59.74
79690;BME280;69156;55.932;-3.238;2023-06-22T05:48:44;101279.89;;;15.98;59.97
79690;BME280;69156;55.932;-3.238;2023-06-22T05:51:10;101284.43;;;16.18;59.68
79690;BME280;69156;55.932;-3.238;2023-06-22T05:53:36;101283.99;;;16.21;60.00
79690;BME280;69156;55.932;-3.238;2023-06-22T05:56:01;101282.07;;;16.26;59.85
79690;BME280;69156;55.932;-3.238;2023-06-22T05:58:26;101282.41;;;16.25;59.85
79690;BME280;69156;55.932;-3.238;2023-06-22T06:00:52;101279.87;;;16.28;59.66
79690;BME280;69156;55.932;-3.238;2023-06-22T06:03:17;101279.60;;;16.38;59.61
79690;BME280;69156;55.932;-3.238;2023-06-22T06:05:43;101280.00;;;16.60;59.34
79690;BME280;69156;55.932;-3.238;2023-06-22T06:08:09;101280.55;;;16.56;58.85
79690;BME280;69156;55.932;-3.238;2023-06-22T06:10:35;101284.71;;;16.57;58.62
79690;BME280;69156;55.932;-3.238;2023-06-22T06:13:00;101282.17;;;16.72;58.30
79690;BME280;69156;55.932;-3.238;2023-06-22T06:15:25;101281.10;;;16.73;58.52
79690;BME280;69156;55.932;-3.238;2023-06-22T06:17:51;101280.75;;;16.66;58.31
79690;BME280;69156;55.932;-3.238;2023-06-22T06:20:19;101282.81;;;16.87;57.74
79690;BME280;69156;55.932;-3.238;2023-06-22T06:22:41;101283.75;;;16.82;57.51
79690;BME280;69156;55.932;-3.238;2023-06-22T06:25:07;101281.70;;;17.13;57.15
79690;BME280;69156;55.932;-3.238;2023-06-22T06:27:33;101280.88;;;17.24;56.47
79690;BME280;69156;55.932;-3.238;2023-06-22T06:29:58;101281.07;;;17.16;56.29
79690;BME280;69156;55.932;-3.238;2023-06-22T06:32:24;101282.55;;;17.01;56.37
79690;BME280;69156;55.932;-3.238;2023-06-22T06:34:49;101283.32;;;17.08;56.19
79690;BME280;69156;55.932;-3.238;2023-06-22T06:37:16;101286.62;;;17.32;55.68
79690;BME280;69156;55.932;-3.238;2023-06-22T06:39:40;101287.29;;;17.38;55.62
79690;BME280;69156;55.932;-3.238;2023-06-22T06:42:06;101286.10;;;17.24;55.50
79690;BME280;69156;55.932;-3.238;2023-06-22T06:44:32;101287.10;;;17.39;54.40
79690;BME280;69156;55.932;-3.238;2023-06-22T06:46:57;101287.14;;;17.42;53.83
79690;BME280;69156;55.932;-3.238;2023-06-22T06:49:22;101291.23;;;17.65;53.28
79690;BME280;69156;55.932;-3.238;2023-06-22T06:51:48;101288.87;;;17.52;52.93
79690;BME280;69156;55.932;-3.238;2023-06-22T06:54:13;101291.89;;;17.62;52.67
79690;BME280;69156;55.932;-3.238;2023-06-22T06:56:39;101290.51;;;17.74;51.60
79690;BME280;69156;55.932;-3.238;2023-06-22T06:59:04;101289.63;;;17.78;51.70
79690;BME280;69156;55.932;-3.238;2023-06-22T07:01:29;101289.90;;;17.86;51.77
79690;BME280;69156;55.932;-3.238;2023-06-22T07:03:55;101290.26;;;17.70;52.20
79690;BME280;69156;55.932;-3.238;2023-06-22T07:06:20;101290.63;;;17.84;51.42
79690;BME280;69156;55.932;-3.238;2023-06-22T07:08:46;101292.40;;;17.82;51.05
79690;BME280;69156;55.932;-3.238;2023-06-22T07:11:11;101291.39;;;17.65;52.04
79690;BME280;69156;55.932;-3.238;2023-06-22T07:13:37;101294.62;;;17.69;52.19
79690;BME280;69156;55.932;-3.238;2023-06-22T07:16:02;101295.78;;;17.48;52.15
79690;BME280;69156;55.932;-3.238;2023-06-22T07:18:28;101296.67;;;17.53;52.68
79690;BME280;69156;55.932;-3.238;2023-06-22T07:20:54;101295.49;;;17.64;52.24
79690;BME280;69156;55.932;-3.238;2023-06-22T07:23:20;101294.73;;;17.82;51.04
79690;BME280;69156;55.932;-3.238;2023-06-22T07:25:46;101299.11;;;17.61;51.49
79690;BME280;69156;55.932;-3.238;2023-06-22T07:28:12;101301.35;;;17.72;51.61
79690;BME280;69156;55.932;-3.238;2023-06-22T07:30:37;101303.54;;;17.85;51.30
79690;BME280;69156;55.932;-3.238;2023-06-22T07:33:02;101300.34;;;17.94;50.71
79690;BME280;69156;55.932;-3.238;2023-06-22T07:35:28;101298.88;;;18.09;49.42
79690;BME280;69156;55.932;-3.238;2023-06-22T07:37:54;101299.95;;;18.04;50.05
79690;BME280;69156;55.932;-3.238;2023-06-22T07:40:19;101301.53;;;18.17;50.14
79690;BME280;69156;55.932;-3.238;2023-06-22T07:42:44;101307.77;;;18.11;50.53
79690;BME280;69156;55.932;-3.238;2023-06-22T07:45:10;101305.42;;;18.14;49.99
79690;BME280;69156;55.932;-3.238;2023-06-22T07:47:36;101302.44;;;18.42;50.25
79690;BME280;69156;55.932;-3.238;2023-06-22T07:50:01;101309.27;;;18.29;49.73
79690;BME280;69156;55.932;-3.238;2023-06-22T07:52:27;101313.34;;;18.42;49.85
79690;BME280;69156;55.932;-3.238;2023-06-22T07:54:51;101315.53;;;18.64;49.81
79690;BME280;69156;55.932;-3.238;2023-06-22T07:57:17;101313.78;;;18.82;48.61
79690;BME280;69156;55.932;-3.238;2023-06-22T07:59:43;101310.43;;;19.01;48.49
79690;BME280;69156;55.932;-3.238;2023-06-22T08:02:14;101310.61;;;18.89;48.02
79690;BME280;69156;55.932;-3.238;2023-06-22T08:04:39;101303.23;;;18.91;47.48
79690;BME280;69156;55.932;-3.238;2023-06-22T08:07:05;101308.86;;;18.82;47.38
79690;BME280;69156;55.932;-3.238;2023-06-22T08:09:31;101309.98;;;18.93;47.38
79690;BME280;69156;55.932;-3.238;2023-06-22T08:11:55;101311.89;;;19.00;47.53
79690;BME280;69156;55.932;-3.238;2023-06-22T08:14:20;101311.98;;;19.25;46.76
79690;BME280;69156;55.932;-3.238;2023-06-22T08:16:45;101313.18;;;19.02;47.34
79690;BME280;69156;55.932;-3.238;2023-06-22T08:19:11;101313.97;;;18.73;46.44
79690;BME280;69156;55.932;-3.238;2023-06-22T08:21:36;101316.17;;;18.73;46.47
79690;BME280;69156;55.932;-3.238;2023-06-22T08:24:01;101315.03;;;19.10;46.30
79690;BME280;69156;55.932;-3.238;2023-06-22T08:26:26;101316.78;;;19.26;44.99
79690;BME280;69156;55.932;-3.238;2023-06-22T08:28:52;101319.18;;;19.40;45.06
79690;BME280;69156;55.932;-3.238;2023-06-22T08:31:18;101319.96;;;19.31;44.53
79690;BME280;69156;55.932;-3.238;2023-06-22T08:33:43;101314.92;;;19.11;44.86
79690;BME280;69156;55.932;-3.238;2023-06-22T08:36:08;101317.48;;;19.07;44.54
79690;BME280;69156;55.932;-3.238;2023-06-22T08:38:33;101321.79;;;19.08;45.26
79690;BME280;69156;55.932;-3.238;2023-06-22T08:40:59;101326.24;;;18.97;45.15
79690;BME280;69156;55.932;-3.238;2023-06-22T08:43:24;101323.87;;;19.21;45.03
79690;BME280;69156;55.932;-3.238;2023-06-22T08:45:49;101323.01;;;19.49;44.12
79690;BME280;69156;55.932;-3.238;2023-06-22T08:48:14;101320.82;;;19.49;42.52
79690;BME280;69156;55.932;-3.238;2023-06-22T08:50:40;101322.55;;;19.37;42.53
79690;BME280;69156;55.932;-3.238;2023-06-22T08:53:06;101321.84;;;18.98;42.52
79690;BME280;69156;55.932;-3.238;2023-06-22T08:55:33;101317.77;;;18.95;42.96
79690;BME280;69156;55.932;-3.238;2023-06-22T08:57:57;101317.58;;;19.12;43.67
79690;BME280;69156;55.932;-3.238;2023-06-22T09:00:23;101317.29;;;19.54;45.13
79690;BME280;69156;55.932;-3.238;2023-06-22T09:02:48;101322.70;;;19.57;43.56
79690;BME280;69156;55.932;-3.238;2023-06-22T09:05:14;101328.65;;;19.35;44.43
79690;BME280;69156;55.932;-3.238;2023-06-22T09:07:40;101332.30;;;19.28;44.31
79690;BME280;69156;55.932;-3.238;2023-06-22T09:10:06;101330.25;;;19.49;43.04
79690;BME280;69156;55.932;-3.238;2023-06-22T09:12:31;101330.04;;;19.52;42.34
79690;BME280;69156;55.932;-3.238;2023-06-22T09:14:56;101330.87;;;19.55;41.30
79690;BME280;69156;55.932;-3.238;2023-06-22T09:17:22;101326.84;;;19.91;40.91
79690;BME280;69156;55.932;-3.238;2023-06-22T09:19:47;101327.79;;;20.08;41.11
79690;BME280;69156;55.932;-3.238;2023-06-22T09:22:12;101326.62;;;20.00;40.46
79690;BME280;69156;55.932;-3.238;2023-06-22T09:24:38;101327.95;;;19.59;41.37
79690;BME280;69156;55.932;-3.238;2023-06-22T09:27:05;101328.77;;;19.33;42.07
79690;BME280;69156;55.932;-3.238;2023-06-22T09:29:29;101334.01;;;19.32;42.58
79690;BME280;69156;55.932;-3.238;2023-06-22T09:31:55;101328.01;;;19.80;41.35
79690;BME280;69156;55.932;-3.238;2023-06-22T09:34:20;101326.56;;;20.06;39.83
79690;BME280;69156;55.932;-3.238;2023-06-22T09:36:46;101334.65;;;20.04;39.35
79690;BME280;69156;55.932;-3.238;2023-06-22T09:39:11;101327.19;;;19.81;40.42
79690;BME280;69156;55.932;-3.238;2023-06-22T09:41:36;101341.81;;;20.17;40.13
79690;BME280;69156;55.932;-3.238;2023-06-22T09:44:02;101343.06;;;20.00;40.26
79690;BME280;69156;55.932;-3.238;2023-06-22T09:46:28;101341.30;;;20.12;39.83
79690;BME280;69156;55.932;-3.238;2023-06-22T09:48:53;101338.98;;;20.55;39.56
79690;BME280;69156;55.932;-3.238;2023-06-22T09:51:18;101340.81;;;20.35;39.19
79690;BME280;69156;55.932;-3.238;2023-06-22T09:53:43;101341.18;;;20.10;40.23
79690;BME280;69156;55.932;-3.238;2023-06-22T09:56:09;101343.96;;;20.30;39.59
79690;BME280;69156;55.932;-3.238;2023-06-22T09:58:35;101348.48;;;20.19;40.15
79690;BME280;69156;55.932;-3.238;2023-06-22T10:01:01;101345.45;;;20.27;39.57
79690;BME280;69156;55.932;-3.238;2023-06-22T10:03:26;101355.59;;;20.16;38.70
79690;BME280;69156;55.932;-3.238;2023-06-22T10:05:51;101353.79;;;20.16;38.54
79690;BME280;69156;55.932;-3.238;2023-06-22T10:08:16;101349.63;;;20.15;38.28
79690;BME280;69156;55.932;-3.238;2023-06-22T10:10:42;101350.03;;;20.23;37.68
79690;BME280;69156;55.932;-3.238;2023-06-22T10:13:09;101348.18;;;20.49;37.66
79690;BME280;69156;55.932;-3.238;2023-06-22T10:15:33;101350.59;;;20.46;37.83
79690;BME280;69156;55.932;-3.238;2023-06-22T10:17:58;101347.68;;;20.37;37.90
79690;BME280;69156;55.932;-3.238;2023-06-22T10:20:24;101337.35;;;20.38;38.07
79690;BME280;69156;55.932;-3.238;2023-06-22T10:22:49;101340.56;;;20.80;37.56
79690;BME280;69156;55.932;-3.238;2023-06-22T10:25:15;101334.13;;;21.20;36.28
79690;BME280;69156;55.932;-3.238;2023-06-22T10:27:41;101338.39;;;20.73;36.66
79690;BME280;69156;55.932;-3.238;2023-06-22T10:30:07;101336.39;;;20.75;37.13
79690;BME280;69156;55.932;-3.238;2023-06-22T10:32:32;101333.31;;;21.17;36.71
79690;BME280;69156;55.932;-3.238;2023-06-22T10:34:57;101336.90;;;20.83;37.17
79690;BME280;69156;55.932;-3.238;2023-06-22T10:37:22;101334.49;;;21.23;37.32
79690;BME280;69156;55.932;-3.238;2023-06-22T10:39:47;101336.95;;;21.22;38.92
79690;BME280;69156;55.932;-3.238;2023-06-22T10:42:12;101344.50;;;20.67;40.35
79690;BME280;69156;55.932;-3.238;2023-06-22T10:44:39;101347.74;;;20.19;41.48
79690;BME280;69156;55.932;-3.238;2023-06-22T10:47:06;101349.26;;;19.96;40.07
79690;BME280;69156;55.932;-3.238;2023-06-22T10:49:30;101343.83;;;19.79;40.27
79690;BME280;69156;55.932;-3.238;2023-06-22T10:51:58;101344.99;;;19.97;39.27
79690;BME280;69156;55.932;-3.238;2023-06-22T10:54:22;101343.31;;;20.48;38.22
79690;BME280;69156;55.932;-3.238;2023-06-22T10:56:50;101341.28;;;20.63;37.89
79690;BME280;69156;55.932;-3.238;2023-06-22T10:59:16;101333.68;;;20.77;38.91
79690;BME280;69156;55.932;-3.238;2023-06-22T11:01:41;101341.09;;;20.69;37.50
79690;BME280;69156;55.932;-3.238;2023-06-22T11:04:07;101339.89;;;20.29;37.92
79690;BME280;69156;55.932;-3.238;2023-06-22T11:06:33;101340.86;;;20.29;38.21
79690;BME280;69156;55.932;-3.238;2023-06-22T11:08:57;101336.07;;;20.34;38.28
79690;BME280;69156;55.932;-3.238;2023-06-22T11:11:22;101340.49;;;20.48;37.94
79690;BME280;69156;55.932;-3.238;2023-06-22T11:13:48;101334.48;;;20.32;37.99
79690;BME280;69156;55.932;-3.238;2023-06-22T11:16:14;101337.54;;;20.53;38.35
79690;BME280;69156;55.932;-3.238;2023-06-22T11:18:39;101335.40;;;20.76;38.24
79690;BME280;69156;55.932;-3.238;2023-06-22T11:21:07;101332.96;;;20.72;37.74
79690;BME280;69156;55.932;-3.238;2023-06-22T11:23:31;101328.11;;;20.95;38.46
79690;BME280;69156;55.932;-3.238;2023-06-22T11:25:57;101332.69;;;21.05;38.60
79690;BME280;69156;55.932;-3.238;2023-06-22T11:28:23;101337.09;;;20.88;38.75
79690;BME280;69156;55.932;-3.238;2023-06-22T11:30:48;101343.87;;;20.69;39.31
79690;BME280;69156;55.932;-3.238;2023-06-22T11:33:13;101344.03;;;20.74;39.22
79690;BME280;69156;55.932;-3.238;2023-06-22T11:35:38;101344.47;;;21.12;39.02
79690;BME280;69156;55.932;-3.238;2023-06-22T11:38:05;101342.78;;;21.17;38.76
79690;BME280;69156;55.932;-3.238;2023-06-22T11:40:31;101345.33;;;21.27;37.74
79690;BME280;69156;55.932;-3.238;2023-06-22T11:42:56;101341.23;;;21.40;35.51
79690;BME280;69156;55.932;-3.238;2023-06-22T11:45:21;101336.20;;;21.25;35.77
79690;BME280;69156;55.932;-3.238;2023-06-22T11:47:47;101334.32;;;21.27;35.70
79690;BME280;69156;55.932;-3.238;2023-06-22T11:50:13;101334.99;;;21.53;35.23
79690;BME280;69156;55.932;-3.238;2023-06-22T11:52:38;101335.94;;;21.49;35.10
79690;BME280;69156;55.932;-3.238;2023-06-22T11:55:04;101339.10;;;21.65;34.97
79690;BME280;69156;55.932;-3.238;2023-06-22T11:57:28;101341.29;;;21.86;34.57
79690;BME280;69156;55.932;-3.238;2023-06-22T11:59:53;101342.86;;;21.79;35.50
79690;BME280;69156;55.932;-3.238;2023-06-22T12:02:19;101338.90;;;21.81;36.80
79690;BME280;69156;55.932;-3.238;2023-06-22T12:04:45;101341.59;;;22.14;35.29
79690;BME280;69156;55.932;-3.238;2023-06-22T12:07:10;101342.00;;;22.07;35.12
79690;BME280;69156;55.932;-3.238;2023-06-22T12:09:36;101338.83;;;22.33;35.24
79690;BME280;69156;55.932;-3.238;2023-06-22T12:12:01;101335.98;;;22.30;35.39
79690;BME280;69156;55.932;-3.238;2023-06-22T12:14:26;101332.11;;;22.39;35.14
79690;BME280;69156;55.932;-3.238;2023-06-22T12:16:52;101335.97;;;22.20;35.52
79690;BME280;69156;55.932;-3.238;2023-06-22T12:19:18;101334.01;;;21.98;36.15
79690;BME280;69156;55.932;-3.238;2023-06-22T12:21:43;101332.49;;;22.29;36.87
79690;BME280;69156;55.932;-3.238;2023-06-22T12:24:09;101336.13;;;22.35;35.78
79690;BME280;69156;55.932;-3.238;2023-06-22T12:26:34;101334.01;;;22.47;35.97
79690;BME280;69156;55.932;-3.238;2023-06-22T12:29:00;101337.75;;;22.22;35.64
79690;BME280;69156;55.932;-3.238;2023-06-22T12:31:26;101334.37;;;22.36;35.19